Time;durP1;ratioP1;P1;durP2;ratioP2;P2;SDS_P1;SDS_P2;PMS_P1;PMS_P2;Temp;Humidity;BMP_temperature;BMP_pressure;BME280_temperature;BME280_humidity;BME280_pressure;Samples;Min_cycle;Max_cycle;Signal;HPM_P1;HPM_P2
2024/02/08 00:00:05;;;;;;;10.70;5.97;;;;;;;;;;6124903;23;20349;-70
2024/02/08 00:02:31;;;;;;;12.97;6.33;;;;;;;;;;6124441;23;20092;-70
2024/02/08 00:04:57;;;;;;;9.10;5.97;;;;;;;;;;6151593;23;20381;-71
2024/02/08 00:07:24;;;;;;;11.07;5.33;;;;;;;;;;6152126;23;20014;-70
2024/02/08 00:09:51;;;;;;;9.73;5.77;;;;;;;;;;6126586;23;20027;-69
2024/02/08 00:12:17;;;;;;;7.27;4.90;;;;;;;;;;6126402;23;20005;-71
2024/02/08 00:14:42;;;;;;;10.43;5.73;;;;;;;;;;6101880;23;20014;-70
2024/02/08 00:17:09;;;;;;;11.03;5.53;;;;;;;;;;6125686;23;20072;-71
2024/02/08 00:19:34;;;;;;;11.53;5.73;;;;;;;;;;6152599;23;20370;-72
2024/02/08 00:22:00;;;;;;;9.07;5.00;;;;;;;;;;6152601;23;20076;-70
2024/02/08 00:24:26;;;;;;;11.30;6.50;;;;;;;;;;6125901;23;20021;-71
2024/02/08 00:26:51;;;;;;;8.27;5.60;;;;;;;;;;6152556;23;20001;-71
2024/02/08 00:29:17;;;;;;;9.87;4.83;;;;;;;;;;6152620;23;20407;-71
2024/02/08 00:31:42;;;;;;;7.53;4.40;;;;;;;;;;6153100;23;20012;-72
2024/02/08 00:34:09;;;;;;;7.13;4.00;;;;;;;;;;6152748;23;20077;-70
2024/02/08 00:36:34;;;;;;;5.07;3.17;;;;;;;;;;6152814;23;19998;-71
2024/02/08 00:39:05;;;;;;;6.63;3.73;;;;;;;;;;6125793;23;20092;-71
2024/02/08 00:41:30;;;;;;;6.00;3.50;;;;;;;;;;6125734;23;20059;-71
2024/02/08 00:43:56;;;;;;;7.00;3.67;;;;;;;;;;6126361;23;20092;-72
2024/02/08 00:46:21;;;;;;;7.53;3.47;;;;;;;;;;6126178;23;20005;-70
2024/02/08 00:48:47;;;;;;;6.50;3.70;;;;;;;;;;6126403;23;20449;-70
2024/02/08 00:51:12;;;;;;;5.17;3.17;;;;;;;;;;6152340;23;20005;-70
2024/02/08 00:53:38;;;;;;;4.57;3.43;;;;;;;;;;6152368;23;20459;-70
2024/02/08 00:56:04;;;;;;;5.33;3.33;;;;;;;;;;6152237;23;19997;-70
2024/02/08 00:58:30;;;;;;;6.10;3.60;;;;;;;;;;6151932;23;20016;-71
2024/02/08 01:00:55;;;;;;;7.50;4.00;;;;;;;;;;6126306;23;20427;-71
2024/02/08 01:03:23;;;;;;;6.47;3.10;;;;;;;;;;6151815;23;20013;-70
2024/02/08 01:05:51;;;;;;;7.77;3.50;;;;;;;;;;6152273;23;20430;-70
2024/02/08 01:08:17;;;;;;;5.90;3.87;;;;;;;;;;6101783;23;20502;-72
2024/02/08 01:10:42;;;;;;;5.63;3.67;;;;;;;;;;6152714;23;20056;-69
2024/02/08 01:13:08;;;;;;;5.03;3.80;;;;;;;;;;6126298;23;20523;-70
2024/02/08 01:15:35;;;;;;;6.70;3.73;;;;;;;;;;6151935;23;20072;-70
2024/02/08 01:18:03;;;;;;;6.93;3.70;;;;;;;;;;6126033;23;20006;-70
2024/02/08 01:20:32;;;;;;;5.70;3.57;;;;;;;;;;6125677;23;20075;-71
2024/02/08 01:22:59;;;;;;;7.13;3.77;;;;;;;;;;6126006;23;20446;-70
2024/02/08 01:25:25;;;;;;;5.97;4.13;;;;;;;;;;6152212;23;20006;-71
2024/02/08 01:27:50;;;;;;;5.87;3.87;;;;;;;;;;6151465;23;20024;-71
2024/02/08 01:30:16;;;;;;;10.80;4.00;;;;;;;;;;6151724;23;20044;-70
2024/02/08 01:32:41;;;;;;;4.23;3.23;;;;;;;;;;6151906;23;20005;-70
2024/02/08 01:35:21;;;;;;;5.83;3.50;;;;;;;;;;6125957;23;20005;-70
2024/02/08 01:37:47;;;;;;;4.70;3.13;;;;;;;;;;6125878;23;20220;-70
2024/02/08 01:40:16;;;;;;;5.53;3.73;;;;;;;;;;6125532;23;20485;-69
2024/02/08 01:42:48;;;;;;;7.30;3.73;;;;;;;;;;6125671;23;20016;-72
2024/02/08 01:45:32;;;;;;;5.27;3.50;;;;;;;;;;6125638;23;20092;-71
2024/02/08 01:48:10;;;;;;;4.93;3.83;;;;;;;;;;6151820;23;20025;-71
2024/02/08 01:50:41;;;;;;;6.13;3.30;;;;;;;;;;6151659;23;20008;-71
2024/02/08 01:53:13;;;;;;;8.48;4.07;;;;;;;;;;6125778;23;20087;-71
2024/02/08 01:55:39;;;;;;;4.93;3.45;;;;;;;;;;6125826;23;20438;-72
2024/02/08 01:58:07;;;;;;;5.47;3.43;;;;;;;;;;6125602;23;20279;-71
2024/02/08 02:00:38;;;;;;;6.37;3.83;;;;;;;;;;6151569;23;20426;-72
2024/02/08 02:03:09;;;;;;;4.33;3.10;;;;;;;;;;6126348;23;20076;-71
2024/02/08 02:05:36;;;;;;;5.07;3.63;;;;;;;;;;6151378;23;20035;-70
2024/02/08 02:08:06;;;;;;;6.37;3.93;;;;;;;;;;6125299;23;20403;-70
2024/02/08 02:10:32;;;;;;;6.67;3.43;;;;;;;;;;6124857;23;20012;-70
2024/02/08 02:13:00;;;;;;;7.97;3.87;;;;;;;;;;6151644;23;20422;-71
2024/02/08 02:15:31;;;;;;;8.67;3.93;;;;;;;;;;6148240;23;20005;-70
2024/02/08 02:18:01;;;;;;;10.50;4.30;;;;;;;;;;6126234;23;20002;-70
2024/02/08 02:20:29;;;;;;;6.23;3.63;;;;;;;;;;6125513;23;20031;-70
2024/02/08 02:23:03;;;;;;;3.70;3.20;;;;;;;;;;6125443;23;20005;-70
2024/02/08 02:25:29;;;;;;;8.93;3.63;;;;;;;;;;6125157;23;20015;-69
2024/02/08 02:27:58;;;;;;;7.40;3.77;;;;;;;;;;6124593;23;20438;-69
2024/02/08 02:30:26;;;;;;;5.97;3.47;;;;;;;;;;6151337;23;20035;-71
2024/02/08 02:32:52;;;;;;;4.97;3.30;;;;;;;;;;6125353;23;20064;-71
2024/02/08 02:35:18;;;;;;;6.37;3.50;;;;;;;;;;6151365;23;20430;-71
2024/02/08 02:37:48;;;;;;;7.77;3.83;;;;;;;;;;6151933;23;20002;-70
2024/02/08 02:40:24;;;;;;;7.10;2.92;;;;;;;;;;6124993;23;20005;-71
2024/02/08 02:42:50;;;;;;;7.23;3.93;;;;;;;;;;6151613;23;20455;-69
2024/02/08 02:45:23;;;;;;;7.97;3.87;;;;;;;;;;6151283;23;20005;-70
2024/02/08 02:47:56;;;;;;;5.30;3.30;;;;;;;;;;6125338;23;20002;-70
2024/02/08 02:50:22;;;;;;;6.70;3.87;;;;;;;;;;6124890;23;20163;-69
2024/02/08 02:52:49;;;;;;;6.57;3.17;;;;;;;;;;6124928;23;20033;-71
2024/02/08 02:55:16;;;;;;;4.90;2.60;;;;;;;;;;6124582;23;20068;-71
2024/02/08 02:57:42;;;;;;;3.53;2.47;;;;;;;;;;6151227;23;20002;-70
2024/02/08 03:00:20;;;;;;;5.63;2.77;;;;;;;;;;6124797;23;20088;-70
2024/02/08 03:02:49;;;;;;;4.50;3.23;;;;;;;;;;6124920;23;20005;-71
2024/02/08 03:05:17;;;;;;;7.07;3.70;;;;;;;;;;6125169;23;20017;-70
2024/02/08 03:07:45;;;;;;;4.73;3.03;;;;;;;;;;6120513;23;20014;-69
2024/02/08 03:10:12;;;;;;;4.67;3.17;;;;;;;;;;6120409;23;20006;-69
2024/02/08 03:12:39;;;;;;;4.70;3.07;;;;;;;;;;6119860;23;20469;-70
2024/02/08 03:15:09;;;;;;;4.20;3.10;;;;;;;;;;6121775;23;20335;-71
2024/02/08 03:17:38;;;;;;;4.87;2.90;;;;;;;;;;6119884;23;20006;-70
2024/02/08 03:20:08;;;;;;;5.77;3.33;;;;;;;;;;6119951;23;20002;-69
2024/02/08 03:22:35;;;;;;;5.13;3.13;;;;;;;;;;6120152;23;20013;-69
2024/02/08 03:25:04;;;;;;;6.27;3.17;;;;;;;;;;6119991;23;20009;-69
2024/02/08 03:27:32;;;;;;;6.83;4.23;;;;;;;;;;6119756;23;20376;-72
2024/02/08 03:30:02;;;;;;;6.33;3.83;;;;;;;;;;6120649;23;20144;-71
2024/02/08 03:32:29;;;;;;;5.50;3.10;;;;;;;;;;6120070;23;20010;-68
2024/02/08 03:34:56;;;;;;;4.90;2.93;;;;;;;;;;6120039;23;20078;-70
2024/02/08 03:37:22;;;;;;;6.23;3.10;;;;;;;;;;6121554;23;20476;-69
2024/02/08 03:39:48;;;;;;;10.20;3.63;;;;;;;;;;6120031;23;20435;-70
2024/02/08 03:42:16;;;;;;;4.80;2.97;;;;;;;;;;6119912;23;20005;-70
2024/02/08 03:44:42;;;;;;;7.30;3.90;;;;;;;;;;6121440;23;20347;-71
2024/02/08 03:47:08;;;;;;;6.23;3.63;;;;;;;;;;6121816;23;20006;-70
2024/02/08 03:49:35;;;;;;;5.43;2.87;;;;;;;;;;6122624;23;20013;-71
2024/02/08 03:52:01;;;;;;;5.53;4.10;;;;;;;;;;6122270;23;20312;-71
2024/02/08 03:54:30;;;;;;;7.73;4.17;;;;;;;;;;6096000;23;20009;-72
2024/02/08 03:57:01;;;;;;;4.97;3.20;;;;;;;;;;6121503;23;20012;-71
2024/02/08 03:59:29;;;;;;;7.53;4.07;;;;;;;;;;6121465;23;20060;-71
2024/02/08 04:02:03;;;;;;;4.50;2.97;;;;;;;;;;6122725;23;20375;-71
2024/02/08 04:05:05;;;;;;;9.87;3.23;;;;;;;;;;6121758;23;20009;-70
2024/02/08 04:07:56;;;;;;;6.95;3.78;;;;;;;;;;6140925;23;20018;-70
2024/02/08 04:53:30;;;;;;;6.73;4.00;;;;;;;;;;6124515;23;20021;-70
2024/02/08 04:54:16;;;;;;;6.40;3.03;;;;;;;;;;6152546;23;20323;-70
2024/02/08 04:56:42;;;;;;;8.27;3.80;;;;;;;;;;6151977;23;20012;-71
2024/02/08 04:59:08;;;;;;;4.83;2.67;;;;;;;;;;6152619;23;20084;-69
2024/02/08 05:01:38;;;;;;;5.83;2.87;;;;;;;;;;6125986;23;20124;-72
2024/02/08 05:04:04;;;;;;;6.33;3.97;;;;;;;;;;6126709;23;20446;-69
2024/02/08 05:06:30;;;;;;;6.83;4.37;;;;;;;;;;6125580;23;20013;-70
2024/02/08 05:08:59;;;;;;;7.47;4.30;;;;;;;;;;6152547;23;20422;-71
2024/02/08 05:11:28;;;;;;;10.77;4.00;;;;;;;;;;6125879;23;20267;-71
2024/02/08 05:14:00;;;;;;;6.43;3.80;;;;;;;;;;6152321;23;20330;-70
2024/02/08 05:16:26;;;;;;;6.13;3.67;;;;;;;;;;6152171;23;20454;-71
2024/02/08 05:18:53;;;;;;;8.10;4.27;;;;;;;;;;6152353;23;20430;-70
2024/02/08 05:21:22;;;;;;;8.70;4.80;;;;;;;;;;6125991;23;20009;-70
2024/02/08 05:23:51;;;;;;;8.30;4.37;;;;;;;;;;6152406;23;20179;-70
2024/02/08 05:26:25;;;;;;;6.63;4.00;;;;;;;;;;6126050;23;20084;-69
2024/02/08 05:28:53;;;;;;;8.17;4.53;;;;;;;;;;6151965;23;20009;-71
2024/02/08 05:31:19;;;;;;;8.57;4.60;;;;;;;;;;6125631;23;20029;-70
2024/02/08 05:33:45;;;;;;;8.03;3.67;;;;;;;;;;6101311;23;20001;-70
2024/02/08 05:36:11;;;;;;;16.70;7.87;;;;;;;;;;6152190;23;20005;-69
2024/02/08 05:38:40;;;;;;;5.47;4.00;;;;;;;;;;6125556;23;20009;-70
2024/02/08 05:41:08;;;;;;;6.57;4.50;;;;;;;;;;6125830;23;20040;-70
2024/02/08 05:43:47;;;;;;;7.57;4.13;;;;;;;;;;6125692;23;20446;-70
2024/02/08 05:46:21;;;;;;;8.80;4.93;;;;;;;;;;6125889;23;20228;-70
2024/02/08 05:48:51;;;;;;;7.13;4.13;;;;;;;;;;6125616;23;20037;-69
2024/02/08 05:51:21;;;;;;;8.93;4.97;;;;;;;;;;6125679;23;19998;-71
2024/02/08 05:53:47;;;;;;;10.87;5.97;;;;;;;;;;6125635;23;20012;-71
2024/02/08 05:56:15;;;;;;;10.37;4.80;;;;;;;;;;6126022;23;20035;-71
2024/02/08 05:58:44;;;;;;;9.13;4.67;;;;;;;;;;6151789;23;20547;-71
2024/02/08 06:01:20;;;;;;;9.90;5.30;;;;;;;;;;6125560;23;20005;-70
2024/02/08 06:03:47;;;;;;;7.67;4.43;;;;;;;;;;6125873;23;20013;-70
2024/02/08 06:06:26;;;;;;;10.57;4.93;;;;;;;;;;6125154;23;20024;-70
2024/02/08 06:08:56;;;;;;;8.80;4.70;;;;;;;;;;6152242;23;20035;-70
2024/02/08 06:11:23;;;;;;;7.77;4.40;;;;;;;;;;6152023;23;20048;-69
2024/02/08 06:14:06;;;;;;;9.03;5.20;;;;;;;;;;6151561;23;20411;-71
2024/02/08 06:16:45;;;;;;;11.23;5.43;;;;;;;;;;6151386;23;20291;-70
2024/02/08 06:19:15;;;;;;;15.67;6.40;;;;;;;;;;6152066;23;20010;-70
2024/02/08 06:21:41;;;;;;;10.87;5.47;;;;;;;;;;6151413;23;20334;-71
2024/02/08 06:27:35;;;;;;;9.57;5.07;;;;;;;;;;6161468;23;20052;-71
2024/02/08 06:29:49;;;;;;;11.07;5.00;;;;;;;;;;6144729;23;20012;-72
2024/02/08 06:35:06;;;;;;;11.10;5.40;;;;;;;;;;6161474;23;20089;-70
2024/02/08 06:37:45;;;;;;;9.50;4.63;;;;;;;;;;6151387;23;19997;-71
2024/02/08 06:40:22;;;;;;;9.93;5.00;;;;;;;;;;6151654;23;20052;-70
2024/02/08 06:48:48;;;;;;;13.67;6.37;;;;;;;;;;6160667;23;20012;-71
2024/02/08 07:38:07;;;;;;;13.20;6.53;;;;;;;;;;6151055;23;20064;-71
2024/02/08 07:40:34;;;;;;;12.10;5.40;;;;;;;;;;6150364;23;20037;-72
2024/02/08 07:45:44;;;;;;;14.90;5.77;;;;;;;;;;6161533;23;20041;-71
2024/02/08 07:48:13;;;;;;;13.88;7.45;;;;;;;;;;6125662;23;20006;-72
2024/02/08 07:50:47;;;;;;;13.80;7.10;;;;;;;;;;6151120;23;20009;-72
2024/02/08 07:53:19;;;;;;;16.40;6.20;;;;;;;;;;6152267;23;20087;-71
2024/02/08 07:55:58;;;;;;;16.40;6.13;;;;;;;;;;6126002;23;20009;-71
2024/02/08 07:58:27;;;;;;;12.17;6.67;;;;;;;;;;6155925;23;20032;-71
2024/02/08 08:00:56;;;;;;;12.40;6.43;;;;;;;;;;6131103;23;20521;-73
2024/02/08 08:03:26;;;;;;;14.90;6.13;;;;;;;;;;6123473;23;20036;-73
2024/02/08 08:05:56;;;;;;;9.33;5.77;;;;;;;;;;6124338;23;20013;-72
2024/02/08 08:08:25;;;;;;;12.33;6.47;;;;;;;;;;6124682;23;20022;-73
2024/02/08 08:11:15;;;;;;;16.00;6.60;;;;;;;;;;6153423;23;20017;-72
2024/02/08 08:14:06;;;;;;;9.80;5.47;;;;;;;;;;6121807;23;20006;-74
2024/02/08 08:19:12;;;;;;;11.77;6.13;;;;;;;;;;6151518;23;20016;-73
2024/02/08 08:24:25;;;;;;;8.30;5.17;;;;;;;;;;6151019;23;20012;-71
2024/02/08 08:27:06;;;;;;;10.23;6.07;;;;;;;;;;6125054;23;20009;-72
2024/02/08 08:29:42;;;;;;;15.83;6.00;;;;;;;;;;6154881;23;20427;-71
2024/02/08 08:35:37;;;;;;;9.17;5.97;;;;;;;;;;6163207;23;20012;-71
2024/02/08 08:38:44;;;;;;;9.97;5.30;;;;;;;;;;6151552;23;20140;-72
2024/02/08 08:40:47;;;;;;;9.20;5.67;;;;;;;;;;6140453;23;20386;-72
2024/02/08 08:43:22;;;;;;;12.40;6.10;;;;;;;;;;6152068;23;20431;-73
2024/02/08 08:45:59;;;;;;;13.63;6.47;;;;;;;;;;6125732;23;20025;-71
2024/02/08 08:48:33;;;;;;;11.40;6.47;;;;;;;;;;6123589;23;20016;-71
2024/02/08 08:51:10;;;;;;;11.73;6.30;;;;;;;;;;6120662;23;20013;-71
2024/02/08 08:53:43;;;;;;;13.67;7.17;;;;;;;;;;6124362;23;20005;-71
2024/02/08 08:56:11;;;;;;;15.40;8.17;;;;;;;;;;6123914;23;20453;-73
2024/02/08 08:58:41;;;;;;;10.00;6.50;;;;;;;;;;6124584;23;20008;-72
2024/02/08 09:01:24;;;;;;;9.27;5.93;;;;;;;;;;6151408;23;20092;-73
2024/02/08 09:04:09;;;;;;;9.53;5.47;;;;;;;;;;6150602;23;20488;-71
2024/02/08 09:06:47;;;;;;;13.03;5.07;;;;;;;;;;6118523;23;20018;-71
2024/02/08 09:09:38;;;;;;;10.03;5.30;;;;;;;;;;6122019;23;20009;-73
2024/02/08 09:12:05;;;;;;;9.63;5.70;;;;;;;;;;6120841;23;20069;-73
2024/02/08 09:14:32;;;;;;;11.53;5.13;;;;;;;;;;6096511;23;20024;-72
2024/02/08 09:16:58;;;;;;;9.20;5.47;;;;;;;;;;6123176;23;20392;-72
2024/02/08 09:19:28;;;;;;;8.30;4.67;;;;;;;;;;6095780;23;20009;-71
2024/02/08 09:21:59;;;;;;;6.13;4.00;;;;;;;;;;6118990;23;20022;-74
2024/02/08 09:24:28;;;;;;;8.70;4.60;;;;;;;;;;6119419;23;20005;-72
2024/02/08 09:29:38;;;;;;;6.43;4.07;;;;;;;;;;6121628;23;20461;-71
2024/02/08 09:32:18;;;;;;;9.87;5.93;;;;;;;;;;6118961;23;20010;-72
2024/02/08 09:34:46;;;;;;;9.47;5.43;;;;;;;;;;6115132;23;20945;-72
2024/02/08 09:37:15;;;;;;;10.40;4.27;;;;;;;;;;6118886;23;20035;-73
2024/02/08 09:42:29;;;;;;;6.83;3.87;;;;;;;;;;6131994;23;20005;-70
2024/02/08 09:45:13;;;;;;;7.37;4.90;;;;;;;;;;6121372;23;20092;-71
2024/02/08 09:47:51;;;;;;;9.93;4.00;;;;;;;;;;6119103;23;20708;-72
2024/02/08 09:50:21;;;;;;;7.90;4.50;;;;;;;;;;6120555;23;20002;-70
2024/02/08 09:52:56;;;;;;;8.23;4.17;;;;;;;;;;6120427;23;20186;-71
2024/02/08 09:55:32;;;;;;;7.37;4.00;;;;;;;;;;6094290;23;20065;-71
2024/02/08 09:58:04;;;;;;;5.47;3.87;;;;;;;;;;6119221;23;20093;-74
2024/02/08 10:00:54;;;;;;;9.97;4.50;;;;;;;;;;6119637;23;20096;-72
2024/02/08 10:03:31;;;;;;;10.43;3.83;;;;;;;;;;6120397;23;20005;-71
2024/02/08 10:06:22;;;;;;;5.73;3.83;;;;;;;;;;6118604;23;20044;-71
2024/02/08 10:09:08;;;;;;;6.75;3.88;;;;;;;;;;6152095;23;20017;-72
2024/02/08 10:11:43;;;;;;;7.77;3.47;;;;;;;;;;6126034;23;20005;-71
2024/02/08 10:14:25;;;;;;;5.27;3.23;;;;;;;;;;6151066;23;20022;-73
2024/02/08 10:16:58;;;;;;;5.40;3.28;;;;;;;;;;6149539;23;20052;-74
2024/02/08 10:21:57;;;;;;;5.60;3.43;;;;;;;;;;6150731;23;20020;-75
2024/02/08 10:27:20;;;;;;;5.20;2.70;;;;;;;;;;6149351;23;20056;-74
2024/02/08 10:30:05;;;;;;;3.10;2.33;;;;;;;;;;6124177;23;20089;-73
2024/02/08 10:32:31;;;;;;;5.00;2.47;;;;;;;;;;6151227;23;20036;-72
2024/02/08 10:35:13;;;;;;;3.33;2.40;;;;;;;;;;6100902;23;20018;-73
2024/02/08 10:37:55;;;;;;;6.45;2.70;;;;;;;;;;6124734;23;20013;-72
2024/02/08 10:40:32;;;;;;;5.78;2.20;;;;;;;;;;6126512;23;20030;-70
2024/02/08 10:42:59;;;;;;;4.53;2.73;;;;;;;;;;6127000;23;20036;-71
2024/02/08 10:45:25;;;;;;;4.57;2.80;;;;;;;;;;6151154;23;20338;-71
2024/02/08 10:47:59;;;;;;;6.43;2.93;;;;;;;;;;6150504;23;20707;-71
2024/02/08 10:50:27;;;;;;;4.47;2.43;;;;;;;;;;6121910;23;20018;-70
2024/02/08 10:53:00;;;;;;;5.17;2.70;;;;;;;;;;6150354;23;20080;-72
2024/02/08 10:55:30;;;;;;;4.93;2.93;;;;;;;;;;6125156;23;20013;-69
2024/02/08 11:06:08;;;;;;;8.17;5.17;;;;;;;;;;6131431;23;20005;-73
2024/02/08 11:08:34;;;;;;;6.07;4.20;;;;;;;;;;6124573;23;20009;-72
2024/02/08 11:11:09;;;;;;;7.10;3.50;;;;;;;;;;6123905;23;20016;-71
2024/02/08 11:13:40;;;;;;;5.37;3.70;;;;;;;;;;6124287;23;20404;-72
2024/02/08 11:16:23;;;;;;;6.93;4.27;;;;;;;;;;6124440;23;20288;-71
2024/02/08 11:18:52;;;;;;;6.43;3.33;;;;;;;;;;6150876;23;20092;-73
2024/02/08 11:21:43;;;;;;;8.33;4.40;;;;;;;;;;6123081;23;20040;-70
2024/02/08 11:24:27;;;;;;;6.70;3.90;;;;;;;;;;6124476;23;20092;-71
2024/02/08 11:27:02;;;;;;;9.63;5.93;;;;;;;;;;6128128;23;20020;-70
2024/02/08 11:29:28;;;;;;;7.23;3.50;;;;;;;;;;6150509;23;20013;-73
2024/02/08 11:31:57;;;;;;;7.20;3.90;;;;;;;;;;6149762;23;20493;-70
2024/02/08 11:34:33;;;;;;;5.30;3.13;;;;;;;;;;6124891;23;20013;-70
2024/02/08 11:37:23;;;;;;;6.50;3.33;;;;;;;;;;6148839;23;20627;-73
2024/02/08 11:40:01;;;;;;;6.77;4.10;;;;;;;;;;6109155;23;20005;-71
2024/02/08 11:42:32;;;;;;;5.20;3.27;;;;;;;;;;6125368;23;20281;-70
2024/02/08 11:45:00;;;;;;;5.80;3.53;;;;;;;;;;6124071;23;20420;-72
2024/02/08 11:47:28;;;;;;;3.03;2.67;;;;;;;;;;6123132;23;20355;-70
2024/02/08 11:50:00;;;;;;;4.77;2.47;;;;;;;;;;6123096;23;20009;-71
2024/02/08 11:52:27;;;;;;;3.17;2.50;;;;;;;;;;6123337;23;20291;-71
2024/02/08 11:55:13;;;;;;;5.53;2.80;;;;;;;;;;6124119;23;20084;-72
2024/02/08 11:57:40;;;;;;;5.50;2.72;;;;;;;;;;6123865;23;20005;-71
2024/02/08 12:00:15;;;;;;;3.13;2.50;;;;;;;;;;6125317;23;20013;-71
2024/02/08 12:02:56;;;;;;;4.85;2.67;;;;;;;;;;6150292;23;20465;-71
2024/02/08 12:05:24;;;;;;;5.03;3.38;;;;;;;;;;6127758;23;20009;-72
2024/02/08 12:07:50;;;;;;;6.65;4.47;;;;;;;;;;6155102;23;20021;-72
2024/02/08 12:10:17;;;;;;;8.00;4.00;;;;;;;;;;6161400;23;20001;-72
2024/02/08 12:12:45;;;;;;;6.23;4.20;;;;;;;;;;6132447;23;20339;-70
2024/02/08 12:15:12;;;;;;;8.00;5.20;;;;;;;;;;6100614;23;20009;-71
2024/02/08 12:17:48;;;;;;;7.73;4.53;;;;;;;;;;6153100;23;20008;-71
2024/02/08 12:20:15;;;;;;;7.33;5.07;;;;;;;;;;6128349;23;20009;-72
2024/02/08 12:22:41;;;;;;;6.60;4.27;;;;;;;;;;6154077;23;20008;-72
2024/02/08 12:25:15;;;;;;;9.40;6.20;;;;;;;;;;6126879;23;20009;-72
2024/02/08 12:27:51;;;;;;;8.43;4.97;;;;;;;;;;6124744;23;20009;-72
2024/02/08 12:30:28;;;;;;;7.30;4.73;;;;;;;;;;6152285;23;20009;-72
2024/02/08 12:32:58;;;;;;;7.78;5.30;;;;;;;;;;6127558;23;20235;-73
2024/02/08 12:35:28;;;;;;;8.10;5.27;;;;;;;;;;6127055;23;20167;-70
2024/02/08 12:37:58;;;;;;;12.63;5.53;;;;;;;;;;6127581;23;20618;-71
2024/02/08 12:40:29;;;;;;;7.00;4.80;;;;;;;;;;6127529;23;20080;-71
2024/02/08 12:42:58;;;;;;;7.30;4.78;;;;;;;;;;6152985;23;19998;-72
2024/02/08 12:45:28;;;;;;;9.87;5.07;;;;;;;;;;6126793;23;20041;-70
2024/02/08 12:47:57;;;;;;;8.52;5.43;;;;;;;;;;6126842;23;20525;-70
2024/02/08 12:50:24;;;;;;;11.77;7.10;;;;;;;;;;6127143;23;20009;-71
2024/02/08 12:52:57;;;;;;;8.93;5.37;;;;;;;;;;6152758;23;20005;-70
2024/02/08 12:55:34;;;;;;;11.23;5.73;;;;;;;;;;6104202;23;20036;-70
2024/02/08 12:58:02;;;;;;;9.40;6.07;;;;;;;;;;6104342;23;20001;-72
2024/02/08 13:00:34;;;;;;;17.10;8.13;;;;;;;;;;6127289;23;20081;-71
2024/02/08 13:03:05;;;;;;;;;;;;;;;;;;6154019;23;20006;-72
2024/02/08 13:05:43;;;;;;;6.67;4.23;;;;;;;;;;6126121;23;19911;-72
2024/02/08 13:08:10;;;;;;;5.20;3.80;;;;;;;;;;6116972;23;20028;-72
2024/02/08 13:10:39;;;;;;;5.65;4.20;;;;;;;;;;6120634;23;20439;-73
2024/02/08 13:13:09;;;;;;;6.47;3.53;;;;;;;;;;6120528;23;20098;-71
2024/02/08 13:15:36;;;;;;;6.90;3.83;;;;;;;;;;6120275;23;20006;-71
2024/02/08 13:18:02;;;;;;;4.07;2.90;;;;;;;;;;6120718;23;20010;-73
2024/02/08 13:20:31;;;;;;;3.67;2.83;;;;;;;;;;6119986;23;20101;-71
2024/02/08 13:22:57;;;;;;;3.63;2.87;;;;;;;;;;6119590;23;20367;-70
2024/02/08 13:25:28;;;;;;;4.10;2.90;;;;;;;;;;6121667;23;20010;-72
2024/02/08 13:27:57;;;;;;;9.23;3.83;;;;;;;;;;6118142;23;20107;-71
2024/02/08 13:30:25;;;;;;;3.83;3.17;;;;;;;;;;6121871;23;20013;-71
2024/02/08 13:32:51;;;;;;;7.93;4.20;;;;;;;;;;6115833;23;20017;-73
2024/02/08 13:35:23;;;;;;;6.55;3.42;;;;;;;;;;6120664;23;20090;-71
2024/02/08 13:37:54;;;;;;;6.47;3.60;;;;;;;;;;6120067;23;20049;-72
2024/02/08 13:40:22;;;;;;;9.47;4.80;;;;;;;;;;6121254;23;20014;-70
2024/02/08 13:42:49;;;;;;;7.43;3.60;;;;;;;;;;6120567;23;20088;-71
2024/02/08 13:45:24;;;;;;;8.03;4.13;;;;;;;;;;6123060;23;20487;-71
2024/02/08 13:47:56;;;;;;;5.87;4.03;;;;;;;;;;6120228;23;20010;-70
2024/02/08 13:50:28;;;;;;;7.03;5.13;;;;;;;;;;6119469;23;20008;-71
2024/02/08 13:52:54;;;;;;;7.80;4.80;;;;;;;;;;6120980;23;20010;-70
2024/02/08 13:55:25;;;;;;;5.67;4.50;;;;;;;;;;6119714;23;20017;-73
2024/02/08 13:57:53;;;;;;;14.47;4.80;;;;;;;;;;6096152;23;20014;-70
2024/02/08 14:00:21;;;;;;;7.53;4.40;;;;;;;;;;6119771;23;20379;-70
2024/02/08 14:02:53;;;;;;;8.10;4.67;;;;;;;;;;6122729;23;20010;-70
2024/02/08 14:05:23;;;;;;;7.50;4.47;;;;;;;;;;6123108;23;20010;-71
2024/02/08 14:07:54;;;;;;;8.60;5.07;;;;;;;;;;6120321;23;20026;-70
2024/02/08 14:10:27;;;;;;;8.63;5.27;;;;;;;;;;6123811;23;20462;-71
2024/02/08 14:13:05;;;;;;;7.47;5.13;;;;;;;;;;6121098;23;20089;-70
2024/02/08 14:15:32;;;;;;;12.10;4.80;;;;;;;;;;6121381;23;19998;-72
2024/02/08 14:18:11;;;;;;;7.53;5.10;;;;;;;;;;6121199;23;20006;-72
2024/02/08 14:20:47;;;;;;;11.63;5.30;;;;;;;;;;6121466;23;20014;-70
2024/02/08 14:23:14;;;;;;;9.27;5.80;;;;;;;;;;6122251;23;20006;-71
2024/02/08 14:26:00;;;;;;;12.43;6.40;;;;;;;;;;6120322;23;20006;-69
2024/02/08 14:28:26;;;;;;;8.57;5.70;;;;;;;;;;6121245;23;20117;-70
2024/02/08 14:30:52;;;;;;;11.77;5.70;;;;;;;;;;6095268;23;20014;-71
2024/02/08 14:33:19;;;;;;;11.57;6.93;;;;;;;;;;6120254;23;20014;-71
2024/02/08 14:35:48;;;;;;;10.17;6.40;;;;;;;;;;6122157;23;20085;-71
2024/02/08 14:38:14;;;;;;;12.17;5.93;;;;;;;;;;6120953;23;20006;-71
2024/02/08 14:40:43;;;;;;;9.83;6.30;;;;;;;;;;6120055;23;20069;-72
2024/02/08 14:43:08;;;;;;;11.17;6.97;;;;;;;;;;6122750;23;20056;-72
2024/02/08 14:45:39;;;;;;;10.33;6.23;;;;;;;;;;6122390;23;20073;-71
2024/02/08 14:48:10;;;;;;;12.13;6.60;;;;;;;;;;6096758;23;20498;-70
2024/02/08 14:53:17;;;;;;;13.93;6.63;;;;;;;;;;6121053;23;20122;-72
2024/02/08 14:55:47;;;;;;;12.03;7.53;;;;;;;;;;6122555;23;20511;-70
2024/02/08 15:01:07;;;;;;;11.43;7.83;;;;;;;;;;6120282;23;20025;-71
2024/02/08 15:03:49;;;;;;;12.37;7.60;;;;;;;;;;6120116;23;20002;-71
2024/02/08 15:14:36;;;;;;;15.47;8.17;;;;;;;;;;6162843;23;20016;-71
2024/02/08 15:17:10;;;;;;;16.07;8.87;;;;;;;;;;6126524;23;20008;-71
2024/02/08 15:19:45;;;;;;;16.57;9.40;;;;;;;;;;6150784;23;20010;-71
2024/02/08 15:22:19;;;;;;;14.57;8.70;;;;;;;;;;6102253;23;20037;-70
2024/02/08 15:24:48;;;;;;;15.70;8.97;;;;;;;;;;6151701;23;20283;-71
2024/02/08 15:27:31;;;;;;;14.30;8.47;;;;;;;;;;6125619;23;20343;-70
2024/02/08 15:30:10;;;;;;;19.73;10.43;;;;;;;;;;6151537;23;20012;-70
2024/02/08 15:32:46;;;;;;;18.33;9.93;;;;;;;;;;6125745;23;20435;-71
2024/02/08 15:35:35;;;;;;;17.23;9.53;;;;;;;;;;6152401;23;20009;-71
2024/02/08 15:40:47;;;;;;;14.38;9.18;;;;;;;;;;6163591;23;20021;-70
2024/02/08 15:43:16;;;;;;;18.17;10.30;;;;;;;;;;6126568;23;20005;-72
2024/02/08 15:45:52;;;;;;;17.17;9.53;;;;;;;;;;6126565;23;20009;-70
2024/02/08 15:48:31;;;;;;;28.10;15.00;;;;;;;;;;6105375;23;20005;-71
2024/02/08 15:51:09;;;;;;;19.23;10.23;;;;;;;;;;6126999;23;20016;-71
2024/02/08 15:53:56;;;;;;;17.13;9.77;;;;;;;;;;6127217;23;20079;-71
2024/02/08 15:56:23;;;;;;;21.63;10.53;;;;;;;;;;6126943;23;20008;-70
2024/02/08 15:58:50;;;;;;;20.03;10.70;;;;;;;;;;6126734;23;20036;-71
2024/02/08 16:01:31;;;;;;;19.13;9.90;;;;;;;;;;6126684;23;20005;-70
2024/02/08 16:03:56;;;;;;;18.92;10.05;;;;;;;;;;6128991;23;20021;-70
2024/02/08 16:06:42;;;;;;;18.43;10.77;;;;;;;;;;6125238;23;20010;-69
2024/02/08 16:09:24;;;;;;;21.70;11.23;;;;;;;;;;6152605;23;20013;-70
2024/02/08 16:12:13;;;;;;;;;;;;;;;;;;6154963;23;19998;-69
2024/02/08 16:14:43;;;;;;;19.03;10.23;;;;;;;;;;6105879;23;19915;-70
2024/02/08 16:20:05;;;;;;;18.63;10.77;;;;;;;;;;6158112;23;20039;-73
2024/02/08 16:22:52;;;;;;;18.70;11.53;;;;;;;;;;6139182;23;20002;-72
2024/02/08 16:25:23;;;;;;;16.67;8.00;;;;;;;;;;6130563;23;20380;-69
2024/02/08 16:27:49;;;;;;;15.93;9.75;;;;;;;;;;6127070;23;20002;-70
2024/02/08 16:30:30;;;;;;;16.87;9.33;;;;;;;;;;6126833;23;20449;-71
2024/02/08 16:32:56;;;;;;;18.50;9.85;;;;;;;;;;6126584;23;20006;-72
2024/02/08 16:38:09;;;;;;;17.37;10.87;;;;;;;;;;6151676;23;20028;-69
2024/02/08 16:40:43;;;;;;;17.23;10.47;;;;;;;;;;6126637;23;20390;-70
2024/02/08 16:43:19;;;;;;;20.80;11.20;;;;;;;;;;6125864;23;20013;-72
2024/02/08 16:45:55;;;;;;;17.03;8.50;;;;;;;;;;6126526;23;20010;-70
2024/02/08 16:48:33;;;;;;;18.57;9.10;;;;;;;;;;6127135;23;20084;-71
2024/02/08 16:51:09;;;;;;;12.53;7.37;;;;;;;;;;6126836;23;20050;-70
2024/02/08 16:53:39;;;;;;;10.53;7.20;;;;;;;;;;6127963;23;20015;-71
2024/02/08 16:56:10;;;;;;;12.63;7.23;;;;;;;;;;6154108;23;20005;-71
2024/02/08 16:58:43;;;;;;;11.97;6.80;;;;;;;;;;6128268;23;20087;-73
2024/02/08 17:01:27;;;;;;;13.57;7.30;;;;;;;;;;6127945;23;20012;-72
2024/02/08 17:06:43;;;;;;;12.53;7.53;;;;;;;;;;6161469;23;20474;-70
2024/02/08 17:11:48;;;;;;;14.87;7.53;;;;;;;;;;6153844;23;20029;-72
2024/02/08 17:14:32;;;;;;;13.23;7.47;;;;;;;;;;6153870;23;20012;-69
2024/02/08 17:16:58;;;;;;;13.73;7.27;;;;;;;;;;6127292;23;20009;-71
2024/02/08 17:22:08;;;;;;;19.13;8.93;;;;;;;;;;6163548;23;20088;-71
2024/02/08 17:27:51;;;;;;;16.17;8.07;;;;;;;;;;6164596;23;20053;-71
2024/02/08 17:30:06;;;;;;;16.17;7.77;;;;;;;;;;6139312;23;20061;-70
2024/02/08 17:32:42;;;;;;;12.67;7.17;;;;;;;;;;6152759;23;20005;-72
2024/02/08 17:35:09;;;;;;;16.93;8.80;;;;;;;;;;6104355;23;20036;-72
2024/02/08 17:37:38;;;;;;;17.40;9.47;;;;;;;;;;6127056;23;20002;-70
2024/02/08 17:40:16;;;;;;;18.77;8.23;;;;;;;;;;6153777;23;20005;-72
2024/02/08 17:42:46;;;;;;;19.80;9.33;;;;;;;;;;6127303;23;20010;-70
2024/02/08 17:45:12;;;;;;;17.07;9.20;;;;;;;;;;6153236;23;20110;-71